createdAt,value
2018-04-23T00:00:40.169Z,17.47
2018-04-23T00:03:06.637Z,17.54
2018-04-23T00:05:33.139Z,17.49
2018-04-23T00:07:59.503Z,17.52
2018-04-23T00:10:25.975Z,17.53
2018-04-23T00:12:52.374Z,17.48
2018-04-23T00:15:18.717Z,17.43
2018-04-23T00:17:45.101Z,17.38
2018-04-23T00:20:11.490Z,17.37
2018-04-23T00:22:37.874Z,17.36
2018-04-23T00:25:04.274Z,17.28
2018-04-23T00:27:30.649Z,17.26
2018-04-23T00:29:56.973Z,17.25
2018-04-23T00:32:23.343Z,17.05
2018-04-23T00:34:49.804Z,16.99
2018-04-23T00:37:16.166Z,16.95
2018-04-23T00:39:42.654Z,16.99
2018-04-23T00:42:09.051Z,16.86
2018-04-23T00:44:35.410Z,16.82
2018-04-23T00:47:01.909Z,16.80
2018-04-23T00:49:28.297Z,16.74
2018-04-23T00:51:54.683Z,16.81
2018-04-23T00:54:21.043Z,16.77
2018-04-23T00:56:47.385Z,16.86
2018-04-23T00:59:13.771Z,16.87
2018-04-23T01:01:40.163Z,16.98
2018-04-23T01:04:06.550Z,16.93
2018-04-23T01:06:32.947Z,16.78
2018-04-23T01:08:59.311Z,16.75
2018-04-23T01:11:25.698Z,16.70
2018-04-23T01:13:52.107Z,16.68
2018-04-23T01:16:18.442Z,16.59
2018-04-23T01:18:44.912Z,16.43
2018-04-23T01:21:11.278Z,16.06
2018-04-23T01:23:37.685Z,16.17
2018-04-23T01:26:04.071Z,16.07
2018-04-23T01:28:30.423Z,16.15
2018-04-23T01:30:56.876Z,16.15
2018-04-23T01:33:23.243Z,15.92
2018-04-23T01:35:49.600Z,15.90
2018-04-23T01:38:15.998Z,15.91
2018-04-23T01:40:42.352Z,15.89
2018-04-23T01:43:08.742Z,15.94
2018-04-23T01:45:35.109Z,15.93
2018-04-23T01:48:01.465Z,15.87
2018-04-23T01:50:27.827Z,15.87
2018-04-23T01:52:54.205Z,15.83
2018-04-23T01:55:20.557Z,15.93
2018-04-23T01:57:46.897Z,15.74
2018-04-23T02:00:13.240Z,15.94
2018-04-23T02:02:39.619Z,16.04
2018-04-23T02:05:05.999Z,16.09
2018-04-23T02:07:32.369Z,16.20
2018-04-23T02:09:58.770Z,16.19
2018-04-23T02:12:25.160Z,16.12
2018-04-23T02:14:51.642Z,16.16
2018-04-23T02:17:18.046Z,16.04
2018-04-23T02:19:44.497Z,16.11
2018-04-23T02:22:10.874Z,16.15
2018-04-23T02:24:37.271Z,16.28
2018-04-23T02:27:03.690Z,16.30
2018-04-23T02:29:30.070Z,16.37
2018-04-23T02:31:56.458Z,16.29
2018-04-23T02:34:22.790Z,16.28
2018-04-23T02:36:49.248Z,16.22
2018-04-23T02:39:15.622Z,15.91
2018-04-23T02:41:42.012Z,15.84
2018-04-23T02:44:08.321Z,15.75
2018-04-23T02:46:34.704Z,15.56
2018-04-23T02:49:01.070Z,15.65
2018-04-23T02:51:27.398Z,15.48
2018-04-23T02:53:53.871Z,15.51
2018-04-23T02:56:20.246Z,15.55
2018-04-23T02:58:46.603Z,15.37
2018-04-23T03:01:13.070Z,15.23
2018-04-23T03:03:39.400Z,15.38
2018-04-23T03:06:05.762Z,15.42
2018-04-23T03:08:32.169Z,15.36
2018-04-23T03:10:58.599Z,15.29
2018-04-23T03:13:24.949Z,15.16
2018-04-23T03:15:51.466Z,15.12
2018-04-23T03:18:17.898Z,15.16
2018-04-23T03:20:44.331Z,15.14
2018-04-23T03:23:10.676Z,15.11
2018-04-23T03:25:37.031Z,15.18
2018-04-23T03:28:03.426Z,15.18
2018-04-23T03:30:29.806Z,15.03
2018-04-23T03:32:56.293Z,15.00
2018-04-23T03:35:22.684Z,15.14
2018-04-23T03:37:49.055Z,15.16
2018-04-23T03:40:15.409Z,14.97
2018-04-23T03:42:41.853Z,15.03
2018-04-23T03:45:08.233Z,15.06
2018-04-23T03:47:34.618Z,14.92
2018-04-23T03:50:00.985Z,14.94
2018-04-23T03:52:27.455Z,14.84
2018-04-23T03:54:53.838Z,14.93
2018-04-23T03:57:20.214Z,14.80
2018-04-23T03:59:46.581Z,14.73
2018-04-23T04:02:12.956Z,14.89
2018-04-23T04:04:39.335Z,14.78
2018-04-23T04:07:05.727Z,14.90
2018-04-23T04:09:32.109Z,14.97
2018-04-23T04:12:10.684Z,14.99
2018-04-23T04:14:49.334Z,15.14
2018-04-23T04:17:15.785Z,15.23
2018-04-23T04:19:42.243Z,15.28
2018-04-23T04:22:08.625Z,15.29
2018-04-23T04:24:34.994Z,15.24
2018-04-23T04:27:01.361Z,15.22
2018-04-23T04:29:27.819Z,15.34
2018-04-23T04:31:55.101Z,15.42
2018-04-23T04:34:21.543Z,15.45
2018-04-23T04:36:48.038Z,15.49
2018-04-23T04:39:14.388Z,15.46
2018-04-23T04:41:40.787Z,15.48
2018-04-23T04:44:07.174Z,15.45
2018-04-23T04:46:33.694Z,15.44
2018-04-23T04:49:00.082Z,15.55
2018-04-23T04:51:26.665Z,15.66
2018-04-23T04:53:52.968Z,15.79
2018-04-23T04:56:19.349Z,15.89
2018-04-23T04:58:45.812Z,15.92
2018-04-23T05:01:12.301Z,15.98
2018-04-23T05:03:38.902Z,16.03
2018-04-23T05:06:05.444Z,16.09
2018-04-23T05:08:32.185Z,16.23
2018-04-23T05:10:58.566Z,16.41
2018-04-23T05:13:25.029Z,16.58
2018-04-23T05:15:51.488Z,16.73
2018-04-23T05:18:17.890Z,16.85
2018-04-23T05:20:44.414Z,17.01
2018-04-23T05:23:10.947Z,17.16
2018-04-23T05:25:37.333Z,17.27
2018-04-23T05:28:03.761Z,17.31
2018-04-23T05:30:30.111Z,17.33
2018-04-23T05:32:56.453Z,17.31
2018-04-23T05:35:22.825Z,17.39
2018-04-23T05:37:49.198Z,17.49
2018-04-23T05:40:15.546Z,17.64
2018-04-23T05:42:42.150Z,17.66
2018-04-23T05:45:08.582Z,17.79
2018-04-23T05:47:35.151Z,17.82
2018-04-23T05:50:01.595Z,17.93
2018-04-23T05:52:28.005Z,17.92
2018-04-23T05:54:54.390Z,18.04
2018-04-23T05:57:20.935Z,18.27
2018-04-23T05:59:47.361Z,18.42
2018-04-23T06:02:13.946Z,18.60
2018-04-23T06:04:40.330Z,18.57
2018-04-23T06:07:06.701Z,18.51
2018-04-23T06:09:33.114Z,18.56
2018-04-23T06:11:59.628Z,18.60
2018-04-23T06:14:26.234Z,18.85
2018-04-23T06:16:52.778Z,19.07
2018-04-23T06:19:19.186Z,19.04
2018-04-23T06:21:45.548Z,19.29
2018-04-23T06:24:12.207Z,19.49
2018-04-23T06:26:38.580Z,19.71
2018-04-23T06:29:04.929Z,19.77
2018-04-23T06:31:31.311Z,19.91
2018-04-23T06:33:57.715Z,20.00
2018-04-23T06:36:24.297Z,20.20
2018-04-23T06:38:50.633Z,20.33
2018-04-23T06:41:17.018Z,20.42
2018-04-23T06:43:43.358Z,20.53
2018-04-23T06:46:09.826Z,20.64
2018-04-23T06:48:36.235Z,20.61
2018-04-23T06:51:02.605Z,20.64
2018-04-23T06:53:29.002Z,20.86
2018-04-23T06:55:55.437Z,21.05
2018-04-23T06:58:21.809Z,21.04
2018-04-23T07:00:48.195Z,21.12
2018-04-23T07:03:14.758Z,21.29
2018-04-23T07:05:41.113Z,21.30
2018-04-23T07:08:07.597Z,21.35
2018-04-23T07:10:34.125Z,21.25
2018-04-23T07:13:00.464Z,21.45
2018-04-23T07:15:26.840Z,21.46
2018-04-23T07:17:53.785Z,21.50
2018-04-23T07:20:20.224Z,21.70
2018-04-23T07:26:11.437Z,21.75
2018-04-23T07:28:37.910Z,21.87
2018-04-23T07:31:04.691Z,21.77
2018-04-23T07:33:31.056Z,21.94
2018-04-23T07:35:57.373Z,22.08
2018-04-23T07:38:23.856Z,22.25
2018-04-23T07:40:50.192Z,22.33
2018-04-23T07:43:16.577Z,22.42
2018-04-23T07:45:43.006Z,22.46
2018-04-23T07:48:09.754Z,22.36
2018-04-23T07:50:36.318Z,22.49
2018-04-23T07:53:02.747Z,22.68
2018-04-23T07:55:29.197Z,22.82
2018-04-23T07:57:55.514Z,23.02
2018-04-23T08:00:22.208Z,22.87
2018-04-23T08:02:48.557Z,23.00
2018-04-23T08:05:14.933Z,23.10
2018-04-23T08:07:41.256Z,23.18
2018-04-23T08:10:08.848Z,23.29
2018-04-23T08:12:35.357Z,23.41
2018-04-23T08:15:01.920Z,23.42
2018-04-23T08:17:28.257Z,23.54
2018-04-23T08:19:54.605Z,23.64
2018-04-23T08:22:21.012Z,23.68
2018-04-23T08:24:47.378Z,23.68
2018-04-23T08:27:13.801Z,23.80
2018-04-23T08:29:40.219Z,23.89
2018-04-23T08:32:06.665Z,23.93
2018-04-23T08:34:33.341Z,23.96
2018-04-23T08:36:59.738Z,24.02
2018-04-23T08:39:26.201Z,24.12
2018-04-23T08:41:52.617Z,24.28
2018-04-23T08:44:19.125Z,24.15
2018-04-23T08:46:45.525Z,24.14
2018-04-23T08:49:11.935Z,24.34
2018-04-23T08:51:38.325Z,24.39
2018-04-23T08:54:04.726Z,24.37
2018-04-23T08:56:31.109Z,24.41
2018-04-23T08:58:57.477Z,24.56
2018-04-23T09:01:23.922Z,24.67
2018-04-23T09:03:50.384Z,24.67
2018-04-23T09:06:16.873Z,24.78
2018-04-23T09:08:43.350Z,24.91
2018-04-23T09:11:09.702Z,25.03
2018-04-23T09:13:36.291Z,25.14
2018-04-23T09:16:02.756Z,25.20
2018-04-23T09:18:29.190Z,25.18
2018-04-23T09:20:55.584Z,25.27
2018-04-23T09:23:21.953Z,25.39
2018-04-23T09:25:48.417Z,25.38
2018-04-23T09:28:14.810Z,25.48
2018-04-23T09:30:41.386Z,25.58
2018-04-23T09:33:07.773Z,25.68
2018-04-23T09:35:34.737Z,25.69
2018-04-23T09:38:01.397Z,25.63
2018-04-23T09:40:27.774Z,25.68
2018-04-23T09:42:54.140Z,25.63
2018-04-23T09:45:21.118Z,25.71
2018-04-23T09:47:47.901Z,25.88
2018-04-23T09:50:14.410Z,25.94
2018-04-23T09:52:40.834Z,26.05
2018-04-23T09:55:07.205Z,26.09
2018-04-23T09:57:33.589Z,26.05
2018-04-23T10:00:00.133Z,26.12
2018-04-23T10:02:26.577Z,26.22
2018-04-23T10:04:52.921Z,26.25
2018-04-23T10:07:19.320Z,26.33
2018-04-23T10:09:45.694Z,26.39
2018-04-23T10:12:12.109Z,26.39
2018-04-23T10:14:38.453Z,26.33
2018-04-23T10:17:04.793Z,26.35
2018-04-23T10:19:31.229Z,26.48
2018-04-23T10:21:57.596Z,26.42
2018-04-23T10:24:23.969Z,26.47
2018-04-23T10:26:50.329Z,26.60
2018-04-23T10:29:16.784Z,26.74
2018-04-23T10:31:43.166Z,26.76
2018-04-23T10:34:09.521Z,26.73
2018-04-23T10:36:35.942Z,26.60
2018-04-23T10:39:02.502Z,26.53
2018-04-23T10:41:28.950Z,26.66
2018-04-23T10:43:55.317Z,26.74
2018-04-23T10:46:21.716Z,26.87
2018-04-23T10:48:48.078Z,26.95
2018-04-23T10:51:14.554Z,27.04
2018-04-23T10:53:40.990Z,26.99
2018-04-23T10:56:07.361Z,27.06
2018-04-23T10:58:33.782Z,27.10
2018-04-23T11:01:00.165Z,27.00
2018-04-23T11:03:26.608Z,27.01
2018-04-23T11:05:53.094Z,27.01
2018-04-23T11:08:19.693Z,26.90
2018-04-23T11:10:46.206Z,26.86
2018-04-23T11:13:12.797Z,26.91
2018-04-23T11:15:39.157Z,26.95
2018-04-23T11:18:05.523Z,26.82
2018-04-23T11:20:31.933Z,26.85
2018-04-23T11:22:58.325Z,26.89
2018-04-23T11:25:24.990Z,27.00
2018-04-23T11:27:51.470Z,27.19
2018-04-23T11:30:18.081Z,27.38
2018-04-23T11:32:44.771Z,27.48
2018-04-23T11:35:11.212Z,27.52
2018-04-23T11:37:37.687Z,27.58
2018-04-23T11:40:04.146Z,27.55
2018-04-23T11:42:30.705Z,27.51
2018-04-23T11:44:57.619Z,27.45
2018-04-23T11:47:24.310Z,27.54
2018-04-23T11:49:50.935Z,27.62
2018-04-23T11:52:17.330Z,27.54
2018-04-23T11:54:43.901Z,27.53
2018-04-23T11:57:10.265Z,27.56
2018-04-23T11:59:36.640Z,27.59
2018-04-23T12:02:03.284Z,27.66
2018-04-23T12:04:29.806Z,27.71
2018-04-23T12:06:56.376Z,27.67
2018-04-23T12:09:22.776Z,27.64
2018-04-23T12:11:49.161Z,27.73
2018-04-23T12:14:15.789Z,27.72
2018-04-23T12:16:42.188Z,27.80
2018-04-23T12:19:08.566Z,27.82
2018-04-23T12:21:35.005Z,27.73
2018-04-23T12:24:01.414Z,27.76
2018-04-23T12:26:27.827Z,27.83
2018-04-23T12:28:54.337Z,27.44
2018-04-23T12:31:20.769Z,27.32
2018-04-23T12:33:47.348Z,27.29
2018-04-23T12:36:13.730Z,27.42
2018-04-23T12:38:40.106Z,27.43
2018-04-23T12:41:06.505Z,27.49
2018-04-23T12:43:32.854Z,27.61
2018-04-23T12:45:59.323Z,27.62
2018-04-23T12:48:25.658Z,27.71
2018-04-23T12:50:52.158Z,27.68
2018-04-23T12:53:18.587Z,27.59
2018-04-23T12:55:44.984Z,27.57
2018-04-23T12:58:11.381Z,27.57
2018-04-23T13:00:38.075Z,27.53
2018-04-23T13:03:04.652Z,27.59
2018-04-23T13:05:31.041Z,27.61
2018-04-23T13:07:57.421Z,27.66
2018-04-23T13:10:23.953Z,27.67
2018-04-23T13:12:50.858Z,27.67
2018-04-23T13:15:17.332Z,27.70
2018-04-23T13:17:43.765Z,27.73
2018-04-23T13:20:10.146Z,27.77
2018-04-23T13:22:36.527Z,27.82
2018-04-23T13:25:02.970Z,27.81
2018-04-23T13:27:29.353Z,27.79
2018-04-23T13:29:55.830Z,27.73
2018-04-23T13:32:22.205Z,27.84
2018-04-23T13:34:48.799Z,27.82
2018-04-23T13:37:15.366Z,27.63
2018-04-23T13:39:41.930Z,27.63
2018-04-23T13:42:08.415Z,27.70
2018-04-23T13:44:35.030Z,27.62
2018-04-23T13:47:01.410Z,27.60
2018-04-23T13:49:27.809Z,27.54
2018-04-23T13:51:54.327Z,27.52
2018-04-23T13:54:20.882Z,27.55
2018-04-23T13:56:47.253Z,27.53
2018-04-23T13:59:13.602Z,27.60
2018-04-23T14:01:39.999Z,27.72
2018-04-23T14:04:06.500Z,27.56
2018-04-23T14:06:32.913Z,27.57
2018-04-23T14:08:59.483Z,27.44
2018-04-23T14:11:25.897Z,27.44
2018-04-23T14:13:52.306Z,27.50
2018-04-23T14:16:18.909Z,27.46
2018-04-23T14:18:45.304Z,27.50
2018-04-23T14:21:11.859Z,27.57
2018-04-23T14:23:38.221Z,27.60
2018-04-23T14:26:04.577Z,27.59
2018-04-23T14:28:31.180Z,27.55
2018-04-23T14:30:57.550Z,27.56
2018-04-23T14:33:24.008Z,27.60
2018-04-23T14:35:50.557Z,27.52
2018-04-23T14:38:16.909Z,27.60
2018-04-23T14:40:43.242Z,27.60
2018-04-23T14:43:09.598Z,27.68
2018-04-23T14:45:35.957Z,27.72
2018-04-23T14:48:02.387Z,27.61
2018-04-23T14:50:28.783Z,27.66
2018-04-23T14:52:55.257Z,27.64
2018-04-23T14:55:21.646Z,27.57
2018-04-23T14:57:48.080Z,27.53
2018-04-23T15:00:14.463Z,27.50
2018-04-23T15:02:40.933Z,27.68
2018-04-23T15:05:07.334Z,27.70
2018-04-23T15:07:33.759Z,27.68
2018-04-23T15:10:00.086Z,27.64
2018-04-23T15:12:26.521Z,27.73
2018-04-23T15:14:52.906Z,27.79
2018-04-23T15:17:19.413Z,27.72
2018-04-23T15:19:45.922Z,27.67
2018-04-23T15:22:12.405Z,27.64
2018-04-23T15:24:38.754Z,27.59
2018-04-23T15:27:05.248Z,27.58
2018-04-23T15:29:31.614Z,27.48
2018-04-23T15:31:58.025Z,27.50
2018-04-23T15:34:24.457Z,27.47
2018-04-23T15:36:50.876Z,27.59
2018-04-23T15:39:17.210Z,27.55
2018-04-23T15:41:43.583Z,27.48
2018-04-23T15:44:10.008Z,27.50
2018-04-23T15:46:36.511Z,27.57
2018-04-23T15:49:02.871Z,27.57
2018-04-23T15:51:29.279Z,27.54
2018-04-23T15:53:55.652Z,27.48
2018-04-23T15:56:22.001Z,27.40
2018-04-23T15:58:48.392Z,27.30
2018-04-23T16:01:14.982Z,27.25
2018-04-23T16:03:41.382Z,27.19
2018-04-23T16:06:07.959Z,27.15
2018-04-23T16:08:34.434Z,27.10
2018-04-23T16:11:00.817Z,27.07
2018-04-23T16:13:27.156Z,27.04
2018-04-23T16:15:53.613Z,26.98
2018-04-23T16:18:20.036Z,26.95
2018-04-23T16:20:46.480Z,26.94
2018-04-23T16:23:13.028Z,26.89
2018-04-23T16:25:39.448Z,26.84
2018-04-23T16:28:05.905Z,26.79
2018-04-23T16:30:32.300Z,26.78
2018-04-23T16:32:58.689Z,26.72
2018-04-23T16:35:25.086Z,26.67
2018-04-23T16:37:51.529Z,26.61
2018-04-23T16:40:17.885Z,26.56
2018-04-23T16:42:44.246Z,26.50
2018-04-23T16:45:10.712Z,26.44
2018-04-23T16:47:37.410Z,26.38
2018-04-23T16:50:03.839Z,26.31
2018-04-23T16:52:30.215Z,26.25
2018-04-23T16:54:56.568Z,26.18
2018-04-23T16:57:22.952Z,26.11
2018-04-23T16:59:49.445Z,26.06
2018-04-23T17:02:15.847Z,26.01
2018-04-23T17:04:42.236Z,25.91
2018-04-23T17:07:08.569Z,25.86
2018-04-23T17:09:34.957Z,25.79
2018-04-23T17:12:01.377Z,25.74
2018-04-23T17:14:27.745Z,25.69
2018-04-23T17:16:54.141Z,25.61
2018-04-23T17:19:20.573Z,25.53
2018-04-23T17:21:47.083Z,25.31
2018-04-23T17:24:13.631Z,25.38
2018-04-23T17:26:40.153Z,25.39
2018-04-23T17:29:07.140Z,25.36
2018-04-23T17:31:33.599Z,25.37
2018-04-23T17:34:00.005Z,25.33
2018-04-23T17:36:26.427Z,25.29
2018-04-23T17:38:52.838Z,25.22
2018-04-23T17:41:19.415Z,25.15
2018-04-23T17:43:45.813Z,25.14
2018-04-23T17:46:12.283Z,25.11
2018-04-23T17:48:38.809Z,25.05
2018-04-23T17:51:06.709Z,25.00
2018-04-23T17:53:33.378Z,24.92
2018-04-23T17:55:59.824Z,24.88
2018-04-23T17:58:26.213Z,24.82
2018-04-23T18:00:52.614Z,24.78
2018-04-23T18:03:19.355Z,24.76
2018-04-23T18:05:45.740Z,24.71
2018-04-23T18:08:12.772Z,24.72
2018-04-23T18:10:39.653Z,24.70
2018-04-23T18:13:06.061Z,24.63
2018-04-23T18:15:32.549Z,24.56
2018-04-23T18:17:58.878Z,24.52
2018-04-23T18:20:25.154Z,24.44
2018-04-23T18:22:51.641Z,24.39
2018-04-23T18:25:17.971Z,24.34
2018-04-23T18:27:44.277Z,24.27
2018-04-23T18:30:10.927Z,24.25
2018-04-23T18:32:37.291Z,24.22
2018-04-23T18:35:03.692Z,24.18
2018-04-23T18:37:30.123Z,24.15
2018-04-23T18:39:56.964Z,24.09
2018-04-23T18:42:23.456Z,24.04
2018-04-23T18:44:49.807Z,23.98
2018-04-23T18:47:16.110Z,23.93
2018-04-23T18:49:42.389Z,23.87
2018-04-23T18:52:08.774Z,23.85
2018-04-23T18:54:35.268Z,23.78
2018-04-23T18:57:01.613Z,23.74
2018-04-23T18:59:28.125Z,23.68
2018-04-23T19:01:54.503Z,23.64
2018-04-23T19:04:20.958Z,23.58
2018-04-23T19:06:47.377Z,23.53
2018-04-23T19:09:13.710Z,23.49
2018-04-23T19:11:40.101Z,23.43
2018-04-23T19:14:06.513Z,23.39
2018-04-23T19:16:32.841Z,23.32
2018-04-23T19:18:59.240Z,23.27
2018-04-23T19:21:25.574Z,23.24
2018-04-23T19:23:51.950Z,23.22
2018-04-23T19:26:18.293Z,23.23
2018-04-23T19:28:44.789Z,23.19
2018-04-23T19:31:11.099Z,23.17
2018-04-23T19:33:37.394Z,23.12
2018-04-23T19:36:03.776Z,23.08
2018-04-23T19:38:30.179Z,23.04
2018-04-23T19:40:56.562Z,23.01
2018-04-23T19:43:22.895Z,22.97
2018-04-23T19:45:49.181Z,22.94
2018-04-23T19:48:15.588Z,22.92
2018-04-23T19:50:42.025Z,22.89
2018-04-23T19:53:08.423Z,22.84
2018-04-23T19:55:34.851Z,22.77
2018-04-23T19:58:01.242Z,22.73
2018-04-23T20:00:27.547Z,22.67
2018-04-23T20:02:53.881Z,22.63
2018-04-23T20:05:20.284Z,22.60
2018-04-23T20:07:46.616Z,22.58
2018-04-23T20:10:12.947Z,22.56
2018-04-23T20:12:39.340Z,22.54
2018-04-23T20:15:05.685Z,22.50
2018-04-23T20:17:32.026Z,22.41
2018-04-23T20:19:58.331Z,22.36
2018-04-23T20:22:24.687Z,22.30
2018-04-23T20:24:51.119Z,22.29
2018-04-23T20:27:17.423Z,22.27
2018-04-23T20:29:43.792Z,22.22
2018-04-23T20:32:10.199Z,22.22
2018-04-23T20:34:36.626Z,22.20
2018-04-23T20:37:02.985Z,22.16
2018-04-23T20:39:29.981Z,22.11
2018-04-23T20:41:57.282Z,22.03
2018-04-23T20:44:24.749Z,22.01
2018-04-23T20:46:52.172Z,21.91
2018-04-23T20:49:19.118Z,21.85
2018-04-23T20:51:45.664Z,21.83
2018-04-23T20:54:12.088Z,21.83
2018-04-23T20:56:39.957Z,21.80
2018-04-23T20:59:06.472Z,21.78
2018-04-23T21:01:33.089Z,21.74
2018-04-23T21:03:59.638Z,21.70
2018-04-23T21:06:26.201Z,21.67
2018-04-23T21:08:52.975Z,21.67
2018-04-23T21:11:19.622Z,21.65
2018-04-23T21:13:46.198Z,21.56
2018-04-23T21:16:12.701Z,21.48
2018-04-23T21:18:39.431Z,21.44
2018-04-23T21:21:05.936Z,21.41
2018-04-23T21:23:32.367Z,21.41
2018-04-23T21:25:58.818Z,21.39
2018-04-23T21:28:25.185Z,21.38
2018-04-23T21:30:51.711Z,21.39
2018-04-23T21:33:18.043Z,21.34
2018-04-23T21:35:44.454Z,21.40
2018-04-23T21:38:10.863Z,21.47
2018-04-23T21:40:37.170Z,21.42
2018-04-23T21:43:03.576Z,21.38
2018-04-23T21:45:29.943Z,21.31
2018-04-23T21:47:56.288Z,21.28
2018-04-23T21:50:22.698Z,21.25
2018-04-23T21:52:49.173Z,21.24
2018-04-23T21:55:15.588Z,21.20
2018-04-23T21:57:41.919Z,21.17
2018-04-23T22:00:08.327Z,21.08
2018-04-23T22:02:34.806Z,21.03
2018-04-23T22:05:01.119Z,21.01
2018-04-23T22:07:27.534Z,20.94
2018-04-23T22:09:53.902Z,20.87
2018-04-23T22:12:20.246Z,20.85
2018-04-23T22:14:46.580Z,20.81
2018-04-23T22:17:12.960Z,20.67
2018-04-23T22:19:39.308Z,20.64
2018-04-23T22:22:05.685Z,20.65
2018-04-23T22:24:32.023Z,20.73
2018-04-23T22:26:58.344Z,20.79
2018-04-23T22:29:24.815Z,20.60
2018-04-23T22:31:51.363Z,20.43
2018-04-23T22:34:17.767Z,20.27
2018-04-23T22:36:44.154Z,20.15
2018-04-23T22:39:10.474Z,19.97
2018-04-23T22:41:42.999Z,19.83
2018-04-23T22:44:09.338Z,19.76
2018-04-23T22:46:35.742Z,19.86
2018-04-23T22:49:02.043Z,19.60
2018-04-23T22:51:28.442Z,19.61
2018-04-23T22:53:54.770Z,19.66
2018-04-23T22:56:21.135Z,19.63
2018-04-23T22:58:47.570Z,19.67
2018-04-23T23:01:14.034Z,19.68
2018-04-23T23:03:40.461Z,19.62
2018-04-23T23:06:07.045Z,19.47
2018-04-23T23:08:33.444Z,19.33
2018-04-23T23:10:59.847Z,19.28
2018-04-23T23:13:26.274Z,19.27
2018-04-23T23:15:52.642Z,19.13
2018-04-23T23:18:19.138Z,18.94
2018-04-23T23:20:45.570Z,18.97
2018-04-23T23:23:11.977Z,18.92
2018-04-23T23:25:38.406Z,18.78
2018-04-23T23:28:04.816Z,18.71
2018-04-23T23:30:31.156Z,18.74
2018-04-23T23:32:57.563Z,18.79
2018-04-23T23:35:23.973Z,18.62
2018-04-23T23:37:50.349Z,18.66
2018-04-23T23:40:16.886Z,18.72
2018-04-23T23:42:43.392Z,18.70
2018-04-23T23:45:09.803Z,18.64
2018-04-23T23:47:36.224Z,18.68
2018-04-23T23:50:03.080Z,18.80
2018-04-23T23:52:29.486Z,18.86
2018-04-23T23:54:55.917Z,18.70
2018-04-23T23:57:22.292Z,18.62
2018-04-23T23:59:48.641Z,18.58
